Time;durP1;ratioP1;P1;durP2;ratioP2;P2;SDS_P1;SDS_P2;PMS_P1;PMS_P2;Temp;Humidity;BMP_temperature;BMP_pressure;BME280_temperature;BME280_humidity;BME280_pressure;Samples;Min_cycle;Max_cycle;Signal;HPM_P1;HPM_P2
2021/12/13 00:01:16;;;;;;;73.75;16.85;;;11.20;99.90;;;;;;5064444;28;20048;-73
2021/12/13 00:04:16;;;;;;;58.63;15.82;;;11.20;99.90;;;;;;5079042;28;20435;-73
2021/12/13 00:07:08;;;;;;;81.13;17.08;;;11.20;99.90;;;;;;5048440;28;20056;-73
2021/12/13 00:09:40;;;;;;;70.78;15.77;;;11.20;99.90;;;;;;5061315;28;20500;-73
2021/12/13 00:12:08;;;;;;;79.35;15.52;;;11.20;99.90;;;;;;5047974;28;20044;-74
2021/12/13 00:14:45;;;;;;;72.80;17.95;;;11.20;99.90;;;;;;5082669;28;20049;-73
2021/12/13 00:17:29;;;;;;;88.18;18.15;;;11.20;99.90;;;;;;5047359;28;20052;-74
2021/12/13 00:20:05;;;;;;;100.53;17.45;;;11.20;99.90;;;;;;5069790;28;20122;-74
2021/12/13 00:22:46;;;;;;;91.93;17.20;;;11.20;99.90;;;;;;5065170;28;20052;-73
2021/12/13 00:25:22;;;;;;;93.47;18.37;;;11.20;99.90;;;;;;5099053;28;20060;-73
2021/12/13 00:28:13;;;;;;;79.22;16.92;;;11.20;99.90;;;;;;5071171;28;20070;-74
2021/12/13 00:31:10;;;;;;;100.45;18.70;;;11.20;99.90;;;;;;5067199;28;20472;-74
2021/12/13 00:34:02;;;;;;;105.30;18.33;;;11.10;99.90;;;;;;5064354;28;20047;-73
2021/12/13 00:36:49;;;;;;;91.38;17.17;;;11.10;99.90;;;;;;5099839;28;20047;-73
2021/12/13 00:39:22;;;;;;;83.38;16.40;;;11.30;99.90;;;;;;5061794;28;20049;-73
2021/12/13 00:41:49;;;;;;;69.57;14.90;;;11.10;99.90;;;;;;5099769;28;20200;-72
2021/12/13 00:44:29;;;;;;;87.00;17.42;;;11.10;99.90;;;;;;5068803;28;20136;-73
2021/12/13 00:46:59;;;;;;;66.28;15.43;;;11.10;99.90;;;;;;5046862;28;20045;-73
2021/12/13 00:49:28;;;;;;;58.80;15.73;;;11.10;99.90;;;;;;5064093;28;20461;-73
2021/12/13 00:51:56;;;;;;;81.90;16.55;;;11.10;99.90;;;;;;5064642;28;20173;-73
2021/12/13 00:54:27;;;;;;;79.57;17.90;;;11.10;99.90;;;;;;5081948;28;20036;-73
2021/12/13 00:57:00;;;;;;;79.03;17.88;;;11.10;99.90;;;;;;5063340;28;20087;-73
2021/12/13 00:59:28;;;;;;;66.28;15.98;;;11.10;99.90;;;;;;5046952;28;20079;-73
2021/12/13 01:02:12;;;;;;;73.35;16.50;;;11.10;99.90;;;;;;5072513;28;20124;-74
2021/12/13 01:04:56;;;;;;;57.00;16.17;;;11.10;99.90;;;;;;5101342;28;20052;-73
2021/12/13 01:07:46;;;;;;;54.33;15.90;;;11.20;99.90;;;;;;5052130;28;20474;-73
2021/12/13 01:10:49;;;;;;;65.53;15.85;;;11.10;99.90;;;;;;5047397;28;20051;-73
2021/12/13 01:13:30;;;;;;;66.68;17.45;;;11.10;99.90;;;;;;5066675;28;20393;-73
2021/12/13 01:16:00;;;;;;;66.60;17.67;;;11.10;99.90;;;;;;5105727;28;20087;-73
2021/12/13 01:18:55;;;;;;;64.80;18.00;;;11.10;99.90;;;;;;5070234;28;20465;-72
2021/12/13 01:21:40;;;;;;;62.70;16.13;;;11.10;99.90;;;;;;5103895;28;20098;-74
2021/12/13 01:24:20;;;;;;;56.20;15.80;;;11.20;99.90;;;;;;5054861;28;20048;-73
2021/12/13 01:26:49;;;;;;;65.00;18.77;;;11.10;99.90;;;;;;5065791;28;20124;-73
2021/12/13 01:29:27;;;;;;;62.20;17.23;;;11.10;99.90;;;;;;5071451;28;20060;-73
2021/12/13 01:31:56;;;;;;;77.20;19.05;;;11.20;99.90;;;;;;5068626;28;20114;-73
2021/12/13 01:34:25;;;;;;;73.10;20.45;;;11.20;99.90;;;;;;5071994;28;20036;-72
2021/12/13 01:37:03;;;;;;;89.22;20.90;;;11.20;99.90;;;;;;5068262;28;20048;-73
2021/12/13 01:39:31;;;;;;;84.68;20.45;;;11.10;99.90;;;;;;5097210;28;20048;-73
2021/12/13 01:42:12;;;;;;;90.88;21.67;;;11.20;99.90;;;;;;5102557;28;20139;-74
2021/12/13 01:44:42;;;;;;;84.65;21.25;;;11.20;99.90;;;;;;5069953;28;20048;-73
2021/12/13 01:47:15;;;;;;;106.72;24.95;;;11.20;99.90;;;;;;5083472;28;20060;-72
2021/12/13 01:49:48;;;;;;;90.35;21.60;;;11.20;99.90;;;;;;5064957;28;20074;-73
2021/12/13 01:52:14;;;;;;;105.82;25.30;;;11.20;99.90;;;;;;5072715;28;20051;-72
2021/12/13 01:54:40;;;;;;;121.10;26.83;;;11.20;99.90;;;;;;5069100;28;20063;-73
2021/12/13 01:59:55;;;;;;;134.75;28.30;;;11.20;99.90;;;;;;5066142;28;20280;-74
2021/12/13 02:02:32;;;;;;;154.55;28.88;;;11.20;99.90;;;;;;5101016;28;20053;-73
2021/12/13 02:05:04;;;;;;;141.65;28.05;;;11.20;99.90;;;;;;5064475;28;20393;-74
2021/12/13 02:07:45;;;;;;;138.45;25.83;;;11.20;99.90;;;;;;5071012;28;20048;-74
2021/12/13 02:10:17;;;;;;;138.30;26.35;;;11.20;99.90;;;;;;5099173;28;20040;-74
2021/12/13 02:12:46;;;;;;;115.65;22.02;;;11.20;99.90;;;;;;5063189;28;20048;-75
2021/12/13 02:18:00;;;;;;;111.57;23.88;;;11.20;99.90;;;;;;5058592;28;20064;-73
2021/12/13 02:20:42;;;;;;;94.68;20.85;;;11.20;99.90;;;;;;5068443;28;20055;-74
2021/12/13 02:23:07;;;;;;;91.80;19.52;;;11.20;99.90;;;;;;5083361;28;20041;-73
2021/12/13 02:25:44;;;;;;;108.03;22.52;;;11.20;99.90;;;;;;5099137;28;20745;-74
2021/12/13 02:28:15;;;;;;;80.15;17.55;;;11.20;99.90;;;;;;5069099;28;20489;-74
2021/12/13 02:30:55;;;;;;;99.35;20.33;;;11.20;99.90;;;;;;5062834;28;20048;-74
2021/12/13 02:33:25;;;;;;;80.57;19.13;;;11.20;99.90;;;;;;5067137;28;20043;-74
2021/12/13 02:35:59;;;;;;;102.03;20.50;;;11.20;99.90;;;;;;5069320;28;20048;-74
2021/12/13 02:38:27;;;;;;;85.20;19.30;;;11.20;99.90;;;;;;5067506;28;20041;-74
2021/12/13 02:40:54;;;;;;;70.10;18.25;;;11.20;99.90;;;;;;5099422;28;20080;-73
2021/12/13 02:43:24;;;;;;;74.32;18.58;;;11.20;99.90;;;;;;5065367;28;20578;-73
2021/12/13 02:45:55;;;;;;;65.45;16.08;;;11.20;99.90;;;;;;5102115;28;20086;-73
2021/12/13 02:48:27;;;;;;;70.32;17.83;;;11.10;99.90;;;;;;5056586;28;20416;-73
2021/12/13 02:51:10;;;;;;;56.95;16.38;;;11.20;99.90;;;;;;5069138;28;20443;-73
2021/12/13 02:53:41;;;;;;;52.97;14.35;;;11.20;99.90;;;;;;5062496;28;20476;-73
2021/12/13 02:56:07;;;;;;;54.83;16.45;;;11.20;99.90;;;;;;5079970;28;20117;-72
2021/12/13 02:58:35;;;;;;;57.15;15.50;;;11.20;99.90;;;;;;5099968;28;20382;-75
2021/12/13 03:01:10;;;;;;;69.55;18.98;;;11.10;99.90;;;;;;5052092;28;20083;-73
2021/12/13 03:03:47;;;;;;;59.60;16.67;;;11.20;99.90;;;;;;5064395;28;20163;-74
2021/12/13 03:06:18;;;;;;;63.28;16.88;;;11.20;99.90;;;;;;5100491;28;20405;-73
2021/12/13 03:08:51;;;;;;;59.38;18.23;;;11.20;99.90;;;;;;5066134;28;20052;-73
2021/12/13 03:11:27;;;;;;;51.88;15.43;;;11.10;99.90;;;;;;5064650;28;20054;-73
2021/12/13 03:14:24;;;;;;;51.35;17.63;;;11.20;99.90;;;;;;5081932;28;20051;-73
2021/12/13 03:17:16;;;;;;;58.65;17.15;;;11.10;99.90;;;;;;5052510;28;20055;-73
2021/12/13 03:19:47;;;;;;;51.38;18.33;;;11.10;99.90;;;;;;5062169;28;20401;-73
2021/12/13 03:22:22;;;;;;;66.50;19.60;;;11.10;99.90;;;;;;5067883;28;20123;-73
2021/12/13 03:25:21;;;;;;;59.47;18.52;;;11.10;99.90;;;;;;5099475;28;20082;-73
2021/12/13 03:27:56;;;;;;;57.42;21.05;;;11.10;99.90;;;;;;5072646;28;20037;-72
2021/12/13 03:30:24;;;;;;;60.92;20.73;;;11.10;99.90;;;;;;5070163;28;20052;-72
2021/12/13 03:32:59;;;;;;;65.45;22.02;;;11.10;99.90;;;;;;5074689;28;20055;-73
2021/12/13 03:35:49;;;;;;;59.38;21.67;;;11.20;99.90;;;;;;5067901;28;20098;-74
2021/12/13 03:38:25;;;;;;;53.88;19.27;;;11.10;99.90;;;;;;5043814;28;20056;-73
2021/12/13 03:40:51;;;;;;;48.28;17.63;;;11.10;99.90;;;;;;5066034;28;20037;-73
2021/12/13 03:43:26;;;;;;;45.75;16.17;;;11.10;99.90;;;;;;5068606;28;20059;-73
2021/12/13 03:45:55;;;;;;;51.05;19.00;;;11.10;99.90;;;;;;5063736;28;20041;-73
2021/12/13 03:48:25;;;;;;;52.60;18.70;;;11.10;99.90;;;;;;5100039;28;20055;-75
2021/12/13 03:50:55;;;;;;;48.55;18.48;;;11.10;99.90;;;;;;5082806;28;20044;-73
2021/12/13 03:53:24;;;;;;;53.25;17.00;;;10.80;99.90;;;;;;5053794;28;20060;-73
2021/12/13 03:55:55;;;;;;;43.42;14.38;;;11.10;99.90;;;;;;5050388;28;20485;-73
2021/12/13 03:58:23;;;;;;;44.75;16.85;;;11.00;99.90;;;;;;5086276;28;20052;-72
2021/12/13 04:01:13;;;;;;;49.30;15.95;;;11.10;99.90;;;;;;5065664;28;20059;-73
2021/12/13 04:03:41;;;;;;;40.90;14.02;;;11.00;99.90;;;;;;5048783;28;20131;-73
2021/12/13 04:06:07;;;;;;;42.28;15.63;;;11.00;99.90;;;;;;5082722;28;20095;-73
2021/12/13 04:08:35;;;;;;;50.00;16.38;;;11.00;99.90;;;;;;5102871;28;20516;-73
2021/12/13 04:11:09;;;;;;;46.13;15.52;;;11.00;99.90;;;;;;5069540;28;20048;-73
2021/12/13 04:13:44;;;;;;;44.88;13.95;;;11.00;99.90;;;;;;5048113;28;20044;-72
2021/12/13 04:16:18;;;;;;;41.05;13.13;;;11.00;99.90;;;;;;5065428;28;20482;-72
2021/12/13 04:21:42;;;;;;;34.10;11.35;;;11.00;99.90;;;;;;5068078;28;20479;-73
2021/12/13 04:24:21;;;;;;;34.55;12.57;;;11.00;99.90;;;;;;5082013;28;20052;-73
2021/12/13 04:26:52;;;;;;;31.73;11.65;;;11.00;99.90;;;;;;5068786;28;20063;-73
2021/12/13 04:29:28;;;;;;;34.58;11.48;;;11.00;99.90;;;;;;5063411;28;20044;-73
2021/12/13 04:31:58;;;;;;;30.08;11.02;;;11.00;99.90;;;;;;5068573;28;20118;-73
2021/12/13 04:34:27;;;;;;;26.35;9.25;;;11.00;99.90;;;;;;5069340;28;20509;-72
2021/12/13 04:36:55;;;;;;;27.60;10.23;;;11.00;99.90;;;;;;5066741;28;20048;-74
2021/12/13 04:39:29;;;;;;;32.05;10.63;;;11.00;99.90;;;;;;5066614;28;20052;-73
2021/12/13 04:41:59;;;;;;;31.15;11.35;;;10.90;99.90;;;;;;5080974;28;20044;-73
2021/12/13 04:44:39;;;;;;;25.50;9.82;;;10.90;99.90;;;;;;5078297;28;20055;-73
2021/12/13 04:47:16;;;;;;;26.85;9.35;;;10.90;99.90;;;;;;5066268;28;20044;-74
2021/12/13 04:49:46;;;;;;;27.38;10.13;;;10.90;99.90;;;;;;5071113;28;20049;-73
2021/12/13 04:52:17;;;;;;;23.42;7.75;;;10.90;99.90;;;;;;5070041;28;20044;-73
2021/12/13 04:54:47;;;;;;;24.85;9.32;;;10.90;99.90;;;;;;5070833;28;20048;-73
2021/12/13 04:57:15;;;;;;;27.02;9.07;;;10.80;99.90;;;;;;5071217;28;20056;-73
2021/12/13 04:59:41;;;;;;;21.92;8.32;;;10.80;99.90;;;;;;5074399;28;20053;-73
2021/12/13 05:02:10;;;;;;;25.00;7.20;;;10.80;99.90;;;;;;5085412;28;20048;-73
2021/12/13 05:04:37;;;;;;;25.92;9.23;;;10.80;99.90;;;;;;5068131;28;20131;-75
2021/12/13 05:07:05;;;;;;;21.80;8.25;;;10.70;99.90;;;;;;5055692;28;20041;-73
2021/12/13 05:09:32;;;;;;;20.75;9.25;;;10.70;99.90;;;;;;5083722;28;20036;-73
2021/12/13 05:12:17;;;;;;;21.58;7.82;;;10.70;99.90;;;;;;5103136;28;20061;-73
2021/12/13 05:14:45;;;;;;;21.23;8.80;;;10.70;99.90;;;;;;5073073;28;20119;-74
2021/12/13 05:17:13;;;;;;;20.88;9.00;;;10.70;99.90;;;;;;5071285;28;20366;-73
2021/12/13 05:19:57;;;;;;;21.67;7.65;;;10.70;99.90;;;;;;5072041;28;20133;-73
2021/12/13 05:22:23;;;;;;;25.40;9.40;;;10.70;99.90;;;;;;5070326;28;20040;-73
2021/12/13 05:25:01;;;;;;;22.92;9.73;;;10.70;99.90;;;;;;5070889;28;20063;-73
2021/12/13 05:27:37;;;;;;;27.17;12.25;;;10.60;99.90;;;;;;5035589;28;20052;-74
2021/12/13 05:30:16;;;;;;;32.03;11.63;;;10.60;99.90;;;;;;5050059;28;20059;-73
2021/12/13 05:32:48;;;;;;;35.38;13.35;;;10.50;99.90;;;;;;5053065;28;20065;-72
2021/12/13 05:35:26;;;;;;;26.70;10.70;;;10.50;99.90;;;;;;5068939;28;20133;-73
2021/12/13 05:37:57;;;;;;;22.95;9.50;;;10.50;99.90;;;;;;5066826;28;20409;-73
2021/12/13 05:40:25;;;;;;;;;;;10.50;99.90;;;;;;5103825;28;20047;-73
2021/12/13 05:42:54;;;;;;;21.17;8.52;;;10.50;99.90;;;;;;5091370;28;19927;-74
2021/12/13 05:45:37;;;;;;;17.45;8.73;;;10.50;99.90;;;;;;5101812;28;20041;-73
2021/12/13 05:48:10;;;;;;;23.33;9.82;;;10.50;99.90;;;;;;5069160;28;20506;-73
2021/12/13 05:50:50;;;;;;;22.58;9.23;;;10.50;99.90;;;;;;5070374;28;20056;-72
2021/12/13 05:53:27;;;;;;;18.20;8.13;;;10.50;99.90;;;;;;5067585;28;20050;-72
2021/12/13 05:55:57;;;;;;;21.45;9.75;;;10.40;99.90;;;;;;5085217;28;20249;-73
2021/12/13 05:58:32;;;;;;;26.05;9.20;;;10.40;99.90;;;;;;5101567;28;20386;-72
2021/12/13 06:00:59;;;;;;;19.25;9.05;;;10.50;99.90;;;;;;5101677;28;20090;-73
2021/12/13 06:03:35;;;;;;;21.05;9.10;;;10.70;99.90;;;;;;5067521;28;20055;-73
2021/12/13 06:06:10;;;;;;;19.50;9.23;;;10.50;99.90;;;;;;5083893;28;20048;-72
2021/12/13 06:08:46;;;;;;;18.55;8.73;;;10.50;99.90;;;;;;5103678;28;20055;-73
2021/12/13 06:11:32;;;;;;;22.00;9.57;;;10.40;99.90;;;;;;5099724;28;20088;-73
2021/12/13 06:14:23;;;;;;;20.60;9.00;;;10.40;99.90;;;;;;5063595;28;20536;-74
2021/12/13 06:17:21;;;;;;;20.67;8.90;;;10.40;99.90;;;;;;5069703;28;20057;-72
2021/12/13 06:20:07;;;;;;;16.88;8.25;;;10.40;99.90;;;;;;5066018;28;20552;-73
2021/12/13 06:22:34;;;;;;;23.70;9.18;;;10.40;99.90;;;;;;5101597;28;20072;-73
2021/12/13 06:25:09;;;;;;;23.83;9.77;;;10.40;99.90;;;;;;5053446;28;20083;-72
2021/12/13 06:27:46;;;;;;;19.65;8.88;;;10.40;99.90;;;;;;5069024;28;20052;-74
2021/12/13 06:30:20;;;;;;;18.98;9.50;;;10.40;99.90;;;;;;5068300;28;20074;-73
2021/12/13 06:32:57;;;;;;;19.77;9.23;;;10.40;99.90;;;;;;5069955;28;20045;-73
2021/12/13 06:35:53;;;;;;;22.40;9.57;;;10.40;99.90;;;;;;5081554;28;20045;-73
2021/12/13 06:38:18;;;;;;;22.70;9.80;;;10.30;99.90;;;;;;5085828;28;20048;-72
2021/12/13 06:41:04;;;;;;;22.10;7.82;;;10.40;99.90;;;;;;5070089;28;20047;-72
2021/12/13 06:43:45;;;;;;;23.95;9.48;;;10.40;99.90;;;;;;5050200;28;20388;-73
2021/12/13 06:46:23;;;;;;;22.23;9.60;;;10.40;99.90;;;;;;5068109;28;20146;-72
2021/12/13 06:49:13;;;;;;;20.92;9.00;;;10.30;99.90;;;;;;5069022;28;20125;-72
2021/12/13 06:51:47;;;;;;;21.90;9.82;;;10.40;99.90;;;;;;5084666;28;20140;-72
2021/12/13 06:54:24;;;;;;;23.08;9.63;;;10.30;99.90;;;;;;5100944;28;20325;-73
2021/12/13 06:57:01;;;;;;;18.27;9.43;;;10.30;99.90;;;;;;5064932;28;20044;-73
2021/12/13 06:59:30;;;;;;;20.90;8.98;;;10.30;99.90;;;;;;5069500;28;20102;-73
2021/12/13 07:02:09;;;;;;;22.38;9.38;;;10.30;99.90;;;;;;5102427;28;20079;-73
2021/12/13 07:05:00;;;;;;;19.00;9.65;;;10.30;99.90;;;;;;5097303;28;20056;-72
2021/12/13 07:07:40;;;;;;;22.15;9.40;;;10.30;99.90;;;;;;5073089;28;20071;-73
2021/12/13 07:10:14;;;;;;;19.27;8.85;;;10.30;99.90;;;;;;5064835;28;20093;-72
2021/12/13 07:13:26;;;;;;;21.55;9.75;;;10.30;99.90;;;;;;5049853;28;20516;-72
2021/12/13 07:16:06;;;;;;;19.27;10.30;;;10.30;99.90;;;;;;5065867;28;20105;-74
2021/12/13 07:18:46;;;;;;;24.17;10.25;;;10.20;99.90;;;;;;5063565;28;20048;-73
2021/12/13 07:21:15;;;;;;;24.13;9.52;;;10.30;99.90;;;;;;5045033;28;20044;-72
2021/12/13 07:23:56;;;;;;;18.55;10.00;;;10.20;99.90;;;;;;5069614;28;20068;-73
2021/12/13 07:26:37;;;;;;;20.60;9.25;;;10.20;99.90;;;;;;5064652;28;20481;-73
2021/12/13 07:29:31;;;;;;;20.70;9.63;;;10.20;99.90;;;;;;5069913;28;20051;-73
2021/12/13 07:32:24;;;;;;;22.73;9.32;;;10.20;99.90;;;;;;5097878;28;20084;-72
2021/12/13 07:35:10;;;;;;;22.88;9.82;;;10.20;99.90;;;;;;5100495;28;20051;-73
2021/12/13 07:37:39;;;;;;;22.17;10.88;;;10.30;99.90;;;;;;5062078;28;20044;-73
2021/12/13 07:40:20;;;;;;;20.63;10.40;;;10.30;99.90;;;;;;5065961;28;20071;-73
2021/12/13 07:43:21;;;;;;;24.00;11.32;;;10.20;99.90;;;;;;5067851;28;20048;-73
2021/12/13 07:45:58;;;;;;;22.60;10.05;;;10.20;99.90;;;;;;5013005;28;20114;-73
2021/12/13 07:48:27;;;;;;;23.50;11.05;;;10.20;99.90;;;;;;5067713;28;20500;-72
2021/12/13 07:51:25;;;;;;;24.77;12.20;;;10.30;99.90;;;;;;5062247;28;20125;-73
2021/12/13 07:53:57;;;;;;;24.90;12.52;;;10.30;99.90;;;;;;5059050;28;20060;-72
2021/12/13 07:56:29;;;;;;;26.05;12.50;;;10.30;99.90;;;;;;5046500;28;20040;-72
2021/12/13 07:59:11;;;;;;;;;;;10.30;99.90;;;;;;5047919;28;20045;-74
2021/12/13 08:02:04;;;;;;;27.75;12.80;;;10.20;99.90;;;;;;5098445;28;19939;-72
2021/12/13 08:04:44;;;;;;;28.52;14.30;;;10.30;99.90;;;;;;5061187;28;20056;-73
2021/12/13 08:07:22;;;;;;;30.48;14.23;;;10.20;99.90;;;;;;5062118;28;20080;-72
2021/12/13 08:10:03;;;;;;;32.13;15.85;;;10.20;99.90;;;;;;5044240;28;20075;-72
2021/12/13 08:12:42;;;;;;;31.13;15.85;;;10.20;99.90;;;;;;5064290;28;20064;-72
2021/12/13 08:15:21;;;;;;;32.38;15.82;;;10.20;99.90;;;;;;5061122;28;20048;-71
2021/12/13 08:17:50;;;;;;;34.67;16.60;;;10.30;99.90;;;;;;5068610;28;20048;-72
2021/12/13 08:20:33;;;;;;;38.55;16.55;;;10.30;99.90;;;;;;5103320;28;20169;-73
2021/12/13 08:23:01;;;;;;;32.45;16.67;;;10.30;99.90;;;;;;5104402;28;20047;-71
2021/12/13 08:25:34;;;;;;;35.28;17.17;;;10.20;99.90;;;;;;5106397;28;20052;-72
2021/12/13 08:28:08;;;;;;;38.85;17.45;;;10.30;99.90;;;;;;5106623;28;20398;-72
2021/12/13 08:30:45;;;;;;;39.88;17.25;;;10.30;99.90;;;;;;5073679;28;20544;-72
2021/12/13 08:33:15;;;;;;;37.72;17.38;;;10.30;99.90;;;;;;5108185;28;20125;-72
2021/12/13 08:36:02;;;;;;;38.58;19.05;;;10.30;99.90;;;;;;5073637;28;20087;-72
2021/12/13 08:38:39;;;;;;;44.50;19.27;;;10.30;99.90;;;;;;5102363;28;20091;-73
2021/12/13 08:41:28;;;;;;;42.45;19.95;;;10.20;99.90;;;;;;5102002;28;20055;-73
2021/12/13 08:43:56;;;;;;;45.15;20.65;;;10.20;99.90;;;;;;5059959;28;20139;-72
2021/12/13 08:46:37;;;;;;;44.03;18.80;;;10.30;99.90;;;;;;5060791;28;20076;-72
2021/12/13 08:49:44;;;;;;;43.63;20.23;;;10.30;99.90;;;;;;5066023;28;20083;-71
2021/12/13 08:52:17;;;;;;;46.20;21.05;;;10.30;99.90;;;;;;5034789;28;20041;-72
2021/12/13 08:55:06;;;;;;;46.17;21.55;;;10.30;99.90;;;;;;5067299;28;20052;-71
2021/12/13 08:57:38;;;;;;;45.05;21.17;;;10.30;99.90;;;;;;5098309;28;20052;-72
2021/12/13 09:00:27;;;;;;;43.63;19.95;;;10.30;99.90;;;;;;5072994;28;20486;-71
2021/12/13 09:02:56;;;;;;;47.83;21.50;;;10.30;99.90;;;;;;5075473;28;20052;-72
2021/12/13 09:05:29;;;;;;;46.22;21.55;;;10.30;99.90;;;;;;5101960;28;20072;-71
2021/12/13 09:08:05;;;;;;;46.55;22.23;;;10.40;99.90;;;;;;5068352;28;20041;-72
2021/12/13 09:10:44;;;;;;;47.70;22.05;;;10.40;99.90;;;;;;5051960;28;20097;-71
2021/12/13 09:13:11;;;;;;;46.38;21.58;;;10.40;99.90;;;;;;5063382;28;20086;-72
2021/12/13 09:15:37;;;;;;;48.08;22.42;;;10.40;99.90;;;;;;5106800;28;20056;-71
2021/12/13 09:18:06;;;;;;;48.10;23.73;;;10.40;99.90;;;;;;5068428;28;20090;-72
2021/12/13 09:20:37;;;;;;;46.55;22.98;;;10.40;99.90;;;;;;5071146;28;20051;-72
2021/12/13 09:23:10;;;;;;;;;;;10.40;99.90;;;;;;5107084;28;20048;-72
2021/12/13 09:25:47;;;;;;;43.78;19.20;;;10.40;99.90;;;;;;5072809;28;19947;-73
2021/12/13 09:28:22;;;;;;;44.63;20.67;;;10.50;99.90;;;;;;5103776;28;20477;-71
2021/12/13 09:30:48;;;;;;;46.10;21.20;;;10.40;99.90;;;;;;5066938;28;20118;-72
2021/12/13 09:33:22;;;;;;;42.38;21.58;;;10.50;99.90;;;;;;5106159;28;20497;-71
2021/12/13 09:36:17;;;;;;;43.55;22.05;;;10.50;99.90;;;;;;5069844;28;20371;-72
2021/12/13 09:39:05;;;;;;;44.10;20.08;;;10.50;99.90;;;;;;5086317;28;20041;-72
2021/12/13 09:41:38;;;;;;;44.97;22.38;;;10.50;99.90;;;;;;5101931;28;20101;-72
2021/12/13 09:44:14;;;;;;;45.67;21.98;;;10.50;99.90;;;;;;5106784;28;20102;-72
2021/12/13 09:46:52;;;;;;;46.50;22.08;;;10.60;99.90;;;;;;5103784;28;20106;-72
2021/12/13 09:49:38;;;;;;;44.47;22.42;;;10.50;99.90;;;;;;5088504;28;20044;-71
2021/12/13 09:52:04;;;;;;;44.65;21.35;;;10.60;99.90;;;;;;5099071;28;20061;-72
2021/12/13 09:54:41;;;;;;;39.58;20.55;;;10.60;99.90;;;;;;5087346;28;20358;-72
2021/12/13 09:57:12;;;;;;;43.22;21.90;;;10.70;99.90;;;;;;5055260;28;20069;-72
2021/12/13 09:59:42;;;;;;;43.08;21.70;;;10.70;99.90;;;;;;5091320;28;20057;-72
2021/12/13 10:02:17;;;;;;;37.90;21.00;;;10.70;99.90;;;;;;5085964;28;20045;-71
2021/12/13 10:04:44;;;;;;;44.03;21.80;;;10.70;99.90;;;;;;5089377;28;20091;-71
2021/12/13 10:07:16;;;;;;;36.75;19.27;;;10.70;99.90;;;;;;5099726;28;20055;-72
2021/12/13 10:09:47;;;;;;;35.78;18.65;;;10.80;99.90;;;;;;5101989;28;20102;-72
2021/12/13 10:12:15;;;;;;;36.75;19.80;;;10.80;99.90;;;;;;5073874;28;20543;-72
2021/12/13 10:14:47;;;;;;;36.53;19.45;;;10.80;99.90;;;;;;5097655;28;20090;-72
2021/12/13 10:17:16;;;;;;;35.03;18.92;;;10.80;99.90;;;;;;5105527;28;20032;-71
2021/12/13 10:19:50;;;;;;;38.70;19.83;;;10.80;99.90;;;;;;5072033;28;20481;-72
2021/12/13 10:22:19;;;;;;;32.97;16.60;;;10.80;99.90;;;;;;5071241;28;20044;-73
2021/12/13 10:24:50;;;;;;;35.15;18.70;;;10.80;99.90;;;;;;5105674;28;20098;-72
2021/12/13 10:27:18;;;;;;;38.25;17.73;;;10.80;99.90;;;;;;5073319;28;20072;-74
2021/12/13 10:29:48;;;;;;;33.70;17.95;;;10.80;99.90;;;;;;5062652;28;20397;-72
2021/12/13 10:32:24;;;;;;;35.33;18.15;;;10.80;99.90;;;;;;5085445;28;20060;-72
2021/12/13 10:34:56;;;;;;;36.92;20.20;;;10.90;99.90;;;;;;5103653;28;20555;-73
2021/12/13 10:37:36;;;;;;;31.40;18.13;;;10.90;99.90;;;;;;5105920;28;20076;-73
2021/12/13 10:40:13;;;;;;;35.78;19.55;;;10.90;99.90;;;;;;5049083;28;20052;-73
2021/12/13 10:42:48;;;;;;;31.23;14.90;;;10.90;99.90;;;;;;5071563;28;20044;-71
2021/12/13 10:45:19;;;;;;;39.20;18.25;;;10.90;99.90;;;;;;5071528;28;20080;-72
2021/12/13 10:47:48;;;;;;;37.53;17.38;;;10.90;99.90;;;;;;5054898;28;20052;-71
2021/12/13 10:50:23;;;;;;;30.38;15.00;;;10.90;99.90;;;;;;5054370;28;20410;-73
2021/12/13 10:52:51;;;;;;;33.17;17.83;;;10.90;99.90;;;;;;5069666;28;20040;-72
2021/12/13 10:55:25;;;;;;;34.67;18.00;;;10.90;99.90;;;;;;5054659;28;20044;-71
2021/12/13 10:57:52;;;;;;;33.78;17.40;;;10.90;99.90;;;;;;5097488;28;20150;-72
2021/12/13 11:00:47;;;;;;;30.08;15.55;;;11.00;99.90;;;;;;5067981;28;20071;-71
2021/12/13 11:03:20;;;;;;;34.22;17.85;;;11.00;99.90;;;;;;5101160;28;20044;-71
2021/12/13 11:05:47;;;;;;;30.02;16.85;;;11.00;99.90;;;;;;5070696;28;20043;-72
2021/12/13 11:08:16;;;;;;;30.80;16.33;;;11.00;99.90;;;;;;5068527;28;20116;-71
2021/12/13 11:10:57;;;;;;;32.90;16.48;;;11.10;99.90;;;;;;5050687;28;20106;-72
2021/12/13 11:13:28;;;;;;;31.92;15.68;;;11.10;99.90;;;;;;5094430;28;20029;-71
2021/12/13 11:16:00;;;;;;;30.50;16.17;;;11.10;99.90;;;;;;5079171;28;20056;-71
2021/12/13 11:18:28;;;;;;;36.95;17.35;;;11.00;99.90;;;;;;5085500;28;20564;-71
2021/12/13 11:20:57;;;;;;;34.78;16.60;;;11.10;99.90;;;;;;5082107;28;20074;-71
2021/12/13 11:23:25;;;;;;;32.33;16.80;;;11.00;99.90;;;;;;5062531;28;20056;-71
2021/12/13 11:25:58;;;;;;;31.60;16.40;;;11.00;99.90;;;;;;5053664;28;20501;-71
2021/12/13 11:28:29;;;;;;;30.63;15.38;;;11.00;99.90;;;;;;5082850;28;20044;-71
2021/12/13 11:30:56;;;;;;;28.75;15.55;;;11.10;99.90;;;;;;5068928;28;20567;-71
2021/12/13 11:33:42;;;;;;;27.60;14.52;;;11.10;99.90;;;;;;5062910;28;20052;-72
2021/12/13 11:36:08;;;;;;;27.70;14.25;;;11.10;99.90;;;;;;5062241;28;20056;-72
2021/12/13 11:39:17;;;;;;;31.88;15.80;;;11.10;99.90;;;;;;5098501;28;20094;-71
2021/12/13 11:42:16;;;;;;;29.45;14.85;;;11.10;99.90;;;;;;5065021;28;20055;-72
2021/12/13 11:45:09;;;;;;;31.80;15.70;;;11.10;99.90;;;;;;5105041;28;20086;-71
2021/12/13 11:47:44;;;;;;;27.38;14.57;;;11.10;99.90;;;;;;5079321;28;20045;-72
2021/12/13 11:50:45;;;;;;;26.98;14.20;;;11.10;99.90;;;;;;5036588;28;20500;-71
2021/12/13 11:53:35;;;;;;;26.20;14.02;;;11.20;99.90;;;;;;5094688;28;20589;-72
2021/12/13 11:56:20;;;;;;;26.88;12.82;;;11.20;99.90;;;;;;5062553;28;20135;-71
2021/12/13 11:59:01;;;;;;;29.25;15.20;;;11.20;99.90;;;;;;5089796;28;20059;-72
2021/12/13 12:01:52;;;;;;;30.37;14.90;;;11.20;99.90;;;;;;5086656;28;20166;-71
2021/12/13 12:04:56;;;;;;;27.08;14.05;;;11.20;99.90;;;;;;5104400;28;20325;-71
2021/12/13 12:07:56;;;;;;;31.13;13.93;;;11.30;99.90;;;;;;5103496;28;20044;-72
2021/12/13 12:10:41;;;;;;;33.78;14.57;;;11.30;99.90;;;;;;5050324;28;20127;-72
2021/12/13 12:13:42;;;;;;;22.70;13.23;;;11.30;99.90;;;;;;5055183;28;20053;-73
2021/12/13 12:16:08;;;;;;;27.60;14.95;;;11.30;99.90;;;;;;5052980;28;20041;-73
2021/12/13 12:18:39;;;;;;;25.75;12.98;;;11.40;99.90;;;;;;5083956;28;20048;-72
2021/12/13 12:21:26;;;;;;;27.25;14.70;;;11.40;99.90;;;;;;5102608;28;20098;-72
2021/12/13 12:23:52;;;;;;;22.40;12.95;;;11.40;99.90;;;;;;5103440;28;20049;-73
2021/12/13 12:26:19;;;;;;;24.67;12.63;;;11.40;99.90;;;;;;5045347;28;20053;-73
2021/12/13 12:28:47;;;;;;;30.40;13.68;;;11.40;99.90;;;;;;5085335;28;20079;-73
2021/12/13 12:31:13;;;;;;;28.45;13.68;;;11.50;99.90;;;;;;5101722;28;20551;-73
2021/12/13 12:33:40;;;;;;;23.88;13.10;;;11.50;99.90;;;;;;5070333;28;20044;-73
2021/12/13 12:36:20;;;;;;;29.75;14.32;;;11.50;99.90;;;;;;5069647;28;20060;-74
2021/12/13 12:39:00;;;;;;;24.52;12.90;;;11.50;99.90;;;;;;5071097;28;20147;-73
2021/12/13 12:42:00;;;;;;;28.23;14.60;;;11.50;99.90;;;;;;5099089;28;20044;-73
2021/12/13 12:44:57;;;;;;;24.83;12.82;;;11.50;99.90;;;;;;5087177;28;20051;-73
2021/12/13 12:47:58;;;;;;;25.98;13.40;;;11.50;99.90;;;;;;5063217;28;20132;-72
2021/12/13 12:50:30;;;;;;;23.85;13.50;;;11.50;99.90;;;;;;5093150;28;20547;-72
2021/12/13 12:53:05;;;;;;;25.60;13.35;;;11.50;99.90;;;;;;5086695;28;20060;-72
2021/12/13 12:55:53;;;;;;;25.25;12.48;;;11.50;99.90;;;;;;5064633;28;20248;-72
2021/12/13 12:58:32;;;;;;;26.45;15.57;;;11.50;99.90;;;;;;5060332;28;20057;-72
2021/12/13 13:01:04;;;;;;;30.85;14.05;;;11.50;99.90;;;;;;5042362;28;20052;-72
2021/12/13 13:03:36;;;;;;;26.52;12.95;;;11.40;99.90;;;;;;5065981;28;20051;-73
2021/12/13 13:06:14;;;;;;;29.85;14.98;;;11.50;99.90;;;;;;5068735;28;20083;-73
2021/12/13 13:08:43;;;;;;;24.00;13.73;;;11.40;99.90;;;;;;5068813;28;20097;-72
2021/12/13 13:11:35;;;;;;;26.83;13.60;;;11.40;99.90;;;;;;5054849;28;20086;-72
2021/12/13 13:14:15;;;;;;;23.88;12.43;;;11.40;99.90;;;;;;5072915;28;20053;-73
2021/12/13 13:16:49;;;;;;;28.50;14.25;;;11.40;99.90;;;;;;5106153;28;20037;-73
2021/12/13 13:19:46;;;;;;;23.58;12.27;;;11.40;99.90;;;;;;5055618;28;20067;-72
2021/12/13 13:22:27;;;;;;;28.85;14.20;;;11.40;99.90;;;;;;5088210;28;20094;-73
2021/12/13 13:24:56;;;;;;;28.10;15.00;;;11.30;99.90;;;;;;5072788;28;20044;-73